createdAt,value
2023-01-08T00:01:20.539Z,29.20
2023-01-08T00:03:50.838Z,30.30
2023-01-08T00:06:21.496Z,28.10
2023-01-08T00:08:49.700Z,25.50
2023-01-08T00:11:18.201Z,23.40
2023-01-08T00:13:46.241Z,23.20
2023-01-08T00:16:16.963Z,23.20
2023-01-08T00:18:45.840Z,23.50
2023-01-08T00:21:14.469Z,21.60
2023-01-08T00:23:42.648Z,20.70
2023-01-08T00:26:11.540Z,23.10
2023-01-08T00:28:40.398Z,22.90
2023-01-08T00:31:11.768Z,23.50
2023-01-08T00:33:40.943Z,23.50
2023-01-08T00:36:15.116Z,23.30
2023-01-08T00:38:46.391Z,25.70
2023-01-08T00:41:16.409Z,23.30
2023-01-08T00:43:44.485Z,23.70
2023-01-08T00:46:12.640Z,24.80
2023-01-08T00:48:40.694Z,24.00
2023-01-08T00:51:09.585Z,23.30
2023-01-08T00:53:40.529Z,24.20
2023-01-08T00:56:10.572Z,24.60
2023-01-08T00:58:39.183Z,23.70
2023-01-08T01:01:12.310Z,23.60
2023-01-08T01:03:41.493Z,23.80
2023-01-08T01:06:11.560Z,22.40
2023-01-08T01:08:40.929Z,21.70
2023-01-08T01:11:23.962Z,21.70
2023-01-08T01:13:52.885Z,21.00
2023-01-08T01:16:21.572Z,21.30
2023-01-08T01:18:52.428Z,20.70
2023-01-08T01:21:26.777Z,22.30
2023-01-08T01:23:56.958Z,21.30
2023-01-08T01:26:26.180Z,20.90
2023-01-08T01:28:56.803Z,19.80
2023-01-08T01:31:27.591Z,19.30
2023-01-08T01:33:56.292Z,18.70
2023-01-08T01:36:25.361Z,17.90
2023-01-08T01:38:55.953Z,19.40
2023-01-08T01:41:46.006Z,18.60
2023-01-08T01:44:52.965Z,18.20
2023-01-08T01:47:27.158Z,20.40
2023-01-08T01:50:37.609Z,19.10
2023-01-08T01:53:14.735Z,18.10
2023-01-08T01:55:44.701Z,18.50
2023-01-08T01:58:17.257Z,18.30
2023-01-08T02:00:45.331Z,17.70
2023-01-08T02:03:16.014Z,19.70
2023-01-08T02:05:55.035Z,18.40
2023-01-08T02:08:31.530Z,18.20
2023-01-08T02:11:38.263Z,18.80
2023-01-08T02:14:31.052Z,18.00
2023-01-08T02:17:09.958Z,17.30
2023-01-08T02:19:53.221Z,18.30
2023-01-08T02:22:45.645Z,17.80
2023-01-08T02:25:35.444Z,19.40
2023-01-08T02:28:09.285Z,18.50
2023-01-08T02:30:37.862Z,19.70
2023-01-08T02:33:06.100Z,20.10
2023-01-08T02:35:40.498Z,20.90
2023-01-08T02:38:13.943Z,21.40
2023-01-08T02:41:08.928Z,21.90
2023-01-08T02:43:48.297Z,20.30
2023-01-08T02:46:22.599Z,19.20
2023-01-08T02:49:03.188Z,18.90
2023-01-08T02:51:35.446Z,18.10
2023-01-08T02:54:08.860Z,19.60
2023-01-08T02:56:43.686Z,19.10
2023-01-08T02:59:14.458Z,18.80
2023-01-08T03:01:43.713Z,18.50
2023-01-08T03:04:19.850Z,18.00
2023-01-08T03:06:48.817Z,18.30
2023-01-08T03:09:18.039Z,18.90
2023-01-08T03:12:10.045Z,19.80
2023-01-08T03:14:47.713Z,19.70
2023-01-08T03:17:24.394Z,18.90
2023-01-08T03:20:03.299Z,18.30
2023-01-08T03:22:33.362Z,18.80
2023-01-08T03:25:04.269Z,18.60
2023-01-08T03:27:37.727Z,19.80
2023-01-08T03:30:08.266Z,21.00
2023-01-08T03:32:39.581Z,18.00
2023-01-08T03:35:12.109Z,20.00
2023-01-08T03:37:45.890Z,17.80
2023-01-08T03:40:22.637Z,17.00
2023-01-08T03:42:50.956Z,17.30
2023-01-08T03:45:21.923Z,17.70
2023-01-08T03:47:51.434Z,17.90
2023-01-08T03:50:23.467Z,17.40
2023-01-08T03:52:51.558Z,18.70
2023-01-08T03:55:19.982Z,17.70
2023-01-08T03:57:48.110Z,17.00
2023-01-08T04:00:16.918Z,16.60
2023-01-08T04:02:45.347Z,16.90
2023-01-08T04:05:13.598Z,15.70
2023-01-08T04:07:41.867Z,16.40
2023-01-08T04:10:10.637Z,16.50
2023-01-08T04:12:38.808Z,15.80
2023-01-08T04:15:07.815Z,15.60
2023-01-08T04:17:36.139Z,16.30
2023-01-08T04:20:05.224Z,18.10
2023-01-08T04:22:33.376Z,17.30
2023-01-08T04:25:01.755Z,18.10
2023-01-08T04:27:29.800Z,16.70
2023-01-08T04:29:57.871Z,16.40
2023-01-08T04:32:26.086Z,15.00
2023-01-08T04:34:54.214Z,15.70
2023-01-08T04:37:22.351Z,16.10
2023-01-08T04:39:50.498Z,15.90
2023-01-08T04:42:18.654Z,13.90
2023-01-08T04:44:46.756Z,15.30
2023-01-08T04:47:15.371Z,14.40
2023-01-08T04:49:43.406Z,14.30
2023-01-08T04:52:11.474Z,15.20
2023-01-08T04:54:39.588Z,12.80
2023-01-08T04:57:08.042Z,13.50
2023-01-08T04:59:36.372Z,13.70
2023-01-08T05:02:04.719Z,15.40
2023-01-08T05:04:33.044Z,14.50
2023-01-08T05:07:01.145Z,13.50
2023-01-08T05:09:29.233Z,13.50
2023-01-08T05:11:58.049Z,13.70
2023-01-08T05:14:26.156Z,14.30
2023-01-08T05:16:54.360Z,15.00
2023-01-08T05:19:22.477Z,14.00
2023-01-08T05:21:50.511Z,14.70
2023-01-08T05:24:18.968Z,14.80
2023-01-08T05:26:47.112Z,15.00
2023-01-08T05:29:16.259Z,13.80
2023-01-08T05:31:45.504Z,14.40
2023-01-08T05:34:13.864Z,13.00
2023-01-08T05:36:42.071Z,13.60
2023-01-08T05:39:10.188Z,13.20
2023-01-08T05:41:38.501Z,14.60
2023-01-08T05:44:06.607Z,14.30
2023-01-08T05:46:34.796Z,14.20
2023-01-08T05:49:03.175Z,15.90
2023-01-08T05:51:31.271Z,14.60
2023-01-08T05:54:00.033Z,15.10
2023-01-08T05:56:28.263Z,13.50
2023-01-08T05:58:56.579Z,13.40
2023-01-08T06:01:24.770Z,13.80
2023-01-08T06:03:56.892Z,14.30
2023-01-08T06:06:25.558Z,13.30
2023-01-08T06:08:53.655Z,12.90
2023-01-08T06:11:21.958Z,12.20
2023-01-08T06:13:50.104Z,12.90
2023-01-08T06:16:18.856Z,12.20
2023-01-08T06:18:47.341Z,12.40
2023-01-08T06:21:15.454Z,13.00
2023-01-08T06:23:43.658Z,13.70
2023-01-08T06:26:11.770Z,15.30
2023-01-08T06:28:39.996Z,15.20
2023-01-08T06:31:08.128Z,14.40
2023-01-08T06:33:36.337Z,12.60
2023-01-08T06:36:05.795Z,13.40
2023-01-08T06:38:35.761Z,12.30
2023-01-08T06:41:05.780Z,13.00
2023-01-08T06:43:36.491Z,11.90
2023-01-08T06:46:06.046Z,12.20
2023-01-08T06:48:34.734Z,11.70
2023-01-08T06:51:04.012Z,11.20
2023-01-08T06:53:32.371Z,11.50
2023-01-08T06:56:00.585Z,12.60
2023-01-08T06:58:30.469Z,11.50
2023-01-08T07:00:59.682Z,11.20
2023-01-08T07:03:28.001Z,10.70
2023-01-08T07:05:57.114Z,10.80
2023-01-08T07:08:25.410Z,10.30
2023-01-08T07:10:54.192Z,10.20
2023-01-08T07:13:24.093Z,10.80
2023-01-08T07:15:52.559Z,10.90
2023-01-08T07:18:20.845Z,12.00
2023-01-08T07:20:49.619Z,11.80
2023-01-08T07:23:17.773Z,11.10
2023-01-08T07:25:47.473Z,12.30
2023-01-08T07:28:16.131Z,10.70
2023-01-08T07:30:44.942Z,10.80
2023-01-08T07:33:13.236Z,11.80
2023-01-08T07:35:41.439Z,12.20
2023-01-08T07:38:09.710Z,10.30
2023-01-08T07:40:39.388Z,24.80
2023-01-08T07:43:12.830Z,29.00
2023-01-08T07:45:41.611Z,13.70
2023-01-08T07:48:15.932Z,14.20
2023-01-08T07:50:45.166Z,13.00
2023-01-08T07:53:13.961Z,11.80
2023-01-08T07:55:42.070Z,13.10
2023-01-08T07:58:16.842Z,10.90
2023-01-08T08:00:45.117Z,11.00
2023-01-08T08:03:13.521Z,10.60
2023-01-08T08:05:41.674Z,10.80
2023-01-08T08:08:11.609Z,10.50
2023-01-08T08:10:41.450Z,11.00
2023-01-08T08:13:10.785Z,10.90
2023-01-08T08:15:39.896Z,11.40
2023-01-08T08:18:08.765Z,11.40
2023-01-08T08:20:37.851Z,12.00
2023-01-08T08:23:13.256Z,12.90
2023-01-08T08:25:43.396Z,10.80
2023-01-08T08:28:12.500Z,10.60
2023-01-08T08:30:42.670Z,14.60
2023-01-08T08:33:11.782Z,23.00
2023-01-08T08:35:41.153Z,23.70
2023-01-08T08:38:09.374Z,18.70
2023-01-08T08:40:37.635Z,12.50
2023-01-08T08:43:06.243Z,10.10
2023-01-08T08:47:10.513Z,8.60
2023-01-08T09:06:30.591Z,10.90
2023-01-08T09:10:04.562Z,12.00
2023-01-08T09:14:15.911Z,12.00
2023-01-08T09:29:46.537Z,8.20
2023-01-08T09:33:29.927Z,9.00
2023-01-08T09:41:56.402Z,8.60
2023-01-08T09:45:46.185Z,8.20
2023-01-08T09:50:01.542Z,10.00
2023-01-08T09:57:44.945Z,15.30
2023-01-08T10:01:28.106Z,10.80
2023-01-08T10:14:04.384Z,9.10
2023-01-08T10:18:00.915Z,7.80
2023-01-08T10:20:45.415Z,9.80
2023-01-08T10:33:04.467Z,11.10
2023-01-08T10:36:53.295Z,16.90
2023-01-08T10:52:54.216Z,10.70
2023-01-08T10:57:05.050Z,9.80
2023-01-08T11:13:01.463Z,11.60
2023-01-08T11:17:16.684Z,9.60
2023-01-08T11:21:20.057Z,10.10
2023-01-08T11:34:02.782Z,11.30
2023-01-08T11:38:26.068Z,12.20
2023-01-08T11:42:52.749Z,12.90
2023-01-08T11:51:13.219Z,11.50
2023-01-08T11:54:54.575Z,11.90
2023-01-08T12:11:58.330Z,10.00
2023-01-08T12:16:09.590Z,10.10
2023-01-08T12:33:15.841Z,9.10
2023-01-08T12:37:13.902Z,11.50
2023-01-08T12:54:12.450Z,11.90
2023-01-08T12:58:13.393Z,13.50
2023-01-08T13:02:53.007Z,11.40
2023-01-08T13:07:20.239Z,12.40
2023-01-08T13:11:25.232Z,12.20
2023-01-08T13:24:19.699Z,10.80
2023-01-08T13:28:13.336Z,11.70
2023-01-08T13:31:57.043Z,9.90
2023-01-08T13:41:00.877Z,11.30
2023-01-08T13:50:00.323Z,11.80
2023-01-08T13:54:09.457Z,12.70
2023-01-08T14:07:50.676Z,11.00
2023-01-08T14:12:04.911Z,10.80
2023-01-08T14:25:02.830Z,14.80
2023-01-08T14:28:54.236Z,14.40
2023-01-08T14:42:14.644Z,28.20
2023-01-08T14:46:30.456Z,12.00
2023-01-08T14:50:35.347Z,9.70
2023-01-08T15:01:58.796Z,10.20
2023-01-08T15:06:18.105Z,9.00
2023-01-08T15:19:20.881Z,36.70
2023-01-08T15:23:15.108Z,23.20
2023-01-08T15:39:43.113Z,13.50
2023-01-08T15:43:42.274Z,14.70
2023-01-08T15:55:32.633Z,14.50
2023-01-08T15:59:43.637Z,30.60
2023-01-08T16:12:41.746Z,27.20
2023-01-08T16:16:07.048Z,23.00
2023-01-08T16:20:00.061Z,24.00
2023-01-08T16:37:02.248Z,26.60
2023-01-08T16:41:12.908Z,29.50
2023-01-08T16:45:18.749Z,28.90
2023-01-08T16:49:19.521Z,35.10
2023-01-08T17:21:44.928Z,27.70
2023-01-08T17:25:27.143Z,45.70
2023-01-08T17:29:29.525Z,27.40
2023-01-08T17:51:16.127Z,21.80
2023-01-08T17:55:28.669Z,21.70
2023-01-08T17:59:55.497Z,18.70
2023-01-08T18:03:30.987Z,16.90
2023-01-08T18:16:21.049Z,19.60
2023-01-08T18:20:19.902Z,18.30
2023-01-08T18:35:50.162Z,27.30
2023-01-08T18:39:36.970Z,24.40
2023-01-08T18:43:11.022Z,29.00
2023-01-08T19:03:27.951Z,34.30
2023-01-08T19:07:08.387Z,33.20
2023-01-08T19:18:30.103Z,53.60
2023-01-08T19:22:41.970Z,56.30
2023-01-08T19:26:38.401Z,84.40
2023-01-08T19:30:23.849Z,79.80
2023-01-08T19:34:16.000Z,75.20
2023-01-08T19:50:04.277Z,64.30
2023-01-08T19:54:26.496Z,51.00
2023-01-08T20:06:42.880Z,36.80
2023-01-08T20:10:34.715Z,37.90
2023-01-08T20:26:32.916Z,32.10
2023-01-08T20:30:46.473Z,22.10
2023-01-08T20:50:29.899Z,22.20
2023-01-08T20:54:44.474Z,22.80
2023-01-08T21:10:12.767Z,23.90
2023-01-08T21:14:24.884Z,22.20
2023-01-08T21:26:47.524Z,30.80
2023-01-08T21:30:26.459Z,65.50
2023-01-08T21:42:14.495Z,35.70
2023-01-08T21:45:52.729Z,35.60
2023-01-08T21:49:43.843Z,30.60
2023-01-08T22:01:29.921Z,18.90
2023-01-08T22:05:08.540Z,20.10
2023-01-08T22:09:01.477Z,16.50
2023-01-08T22:24:44.187Z,23.40
2023-01-08T22:28:53.653Z,20.90
2023-01-08T22:33:00.087Z,16.90
2023-01-08T22:44:28.794Z,21.60
2023-01-08T22:48:16.239Z,21.00
2023-01-08T22:52:04.855Z,21.30
2023-01-08T23:03:57.315Z,18.30
2023-01-08T23:07:53.279Z,18.90
2023-01-08T23:31:08.520Z,33.50
2023-01-08T23:35:21.738Z,16.90
2023-01-08T23:38:40.727Z,18.30
2023-01-08T23:58:45.947Z,20.10
